sensor_id;sensor_type;location;lat;lon;timestamp;temperature;humidity
52267;DHT22;38223;50.940;4.034;2023-11-19T00:00:00;14.70;99.90
52267;DHT22;38223;50.940;4.034;2023-11-19T00:02:30;14.70;99.90
52267;DHT22;38223;50.940;4.034;2023-11-19T00:05:01;14.90;99.90
52267;DHT22;38223;50.940;4.034;2023-11-19T00:07:31;14.90;99.90
52267;DHT22;38223;50.940;4.034;2023-11-19T00:10:01;15.00;99.90
52267;DHT22;38223;50.940;4.034;2023-11-19T00:12:29;15.00;99.90
52267;DHT22;38223;50.940;4.034;2023-11-19T00:14:57;15.10;99.90
52267;DHT22;38223;50.940;4.034;2023-11-19T00:17:26;15.10;99.90
52267;DHT22;38223;50.940;4.034;2023-11-19T00:19:54;14.90;99.90
52267;DHT22;38223;50.940;4.034;2023-11-19T00:22:24;15.10;99.90
52267;DHT22;38223;50.940;4.034;2023-11-19T00:24:54;15.00;99.90
52267;DHT22;38223;50.940;4.034;2023-11-19T00:27:21;15.00;99.90
52267;DHT22;38223;50.940;4.034;2023-11-19T00:29:49;15.00;99.90
52267;DHT22;38223;50.940;4.034;2023-11-19T00:32:20;14.90;99.90
52267;DHT22;38223;50.940;4.034;2023-11-19T00:34:51;14.90;99.90
52267;DHT22;38223;50.940;4.034;2023-11-19T00:37:21;15.00;99.90
52267;DHT22;38223;50.940;4.034;2023-11-19T00:39:49;14.90;99.90
52267;DHT22;38223;50.940;4.034;2023-11-19T00:42:19;14.80;99.90
52267;DHT22;38223;50.940;4.034;2023-11-19T00:44:48;14.90;99.90
52267;DHT22;38223;50.940;4.034;2023-11-19T00:47:18;14.70;99.90
52267;DHT22;38223;50.940;4.034;2023-11-19T00:49:50;14.80;99.90
52267;DHT22;38223;50.940;4.034;2023-11-19T00:52:17;15.00;99.90
52267;DHT22;38223;50.940;4.034;2023-11-19T00:54:44;15.00;99.90
52267;DHT22;38223;50.940;4.034;2023-11-19T00:57:11;14.80;99.90
52267;DHT22;38223;50.940;4.034;2023-11-19T00:59:41;14.70;99.90
52267;DHT22;38223;50.940;4.034;2023-11-19T01:02:07;14.70;99.90
52267;DHT22;38223;50.940;4.034;2023-11-19T01:04:37;14.80;99.90
52267;DHT22;38223;50.940;4.034;2023-11-19T01:07:07;14.60;99.90
52267;DHT22;38223;50.940;4.034;2023-11-19T01:09:37;14.60;99.90
52267;DHT22;38223;50.940;4.034;2023-11-19T01:12:06;14.60;99.90
52267;DHT22;38223;50.940;4.034;2023-11-19T01:14:36;14.80;99.90
52267;DHT22;38223;50.940;4.034;2023-11-19T01:17:06;14.80;99.90
52267;DHT22;38223;50.940;4.034;2023-11-19T01:19:34;14.70;99.90
52267;DHT22;38223;50.940;4.034;2023-11-19T01:22:02;14.80;99.90
52267;DHT22;38223;50.940;4.034;2023-11-19T01:24:30;14.80;99.90
52267;DHT22;38223;50.940;4.034;2023-11-19T01:27:03;14.70;99.90
52267;DHT22;38223;50.940;4.034;2023-11-19T01:29:31;14.40;99.90
52267;DHT22;38223;50.940;4.034;2023-11-19T01:31:59;14.40;99.90
52267;DHT22;38223;50.940;4.034;2023-11-19T01:34:29;14.30;99.90
52267;DHT22;38223;50.940;4.034;2023-11-19T01:36:57;14.30;99.90
52267;DHT22;38223;50.940;4.034;2023-11-19T01:39:28;14.40;99.90
52267;DHT22;38223;50.940;4.034;2023-11-19T01:41:58;14.40;99.90
52267;DHT22;38223;50.940;4.034;2023-11-19T01:44:28;14.40;99.90
52267;DHT22;38223;50.940;4.034;2023-11-19T01:46:56;14.40;99.90
52267;DHT22;38223;50.940;4.034;2023-11-19T01:49:25;14.40;99.90
52267;DHT22;38223;50.940;4.034;2023-11-19T01:51:52;14.50;99.90
52267;DHT22;38223;50.940;4.034;2023-11-19T01:54:19;14.40;99.90
52267;DHT22;38223;50.940;4.034;2023-11-19T01:56:49;14.30;99.90
52267;DHT22;38223;50.940;4.034;2023-11-19T01:59:16;14.30;99.90
52267;DHT22;38223;50.940;4.034;2023-11-19T02:01:43;14.30;99.90
52267;DHT22;38223;50.940;4.034;2023-11-19T02:04:10;14.40;99.90
52267;DHT22;38223;50.940;4.034;2023-11-19T02:06:39;14.50;99.90
52267;DHT22;38223;50.940;4.034;2023-11-19T02:09:06;14.60;99.90
52267;DHT22;38223;50.940;4.034;2023-11-19T02:11:35;14.60;99.90
52267;DHT22;38223;50.940;4.034;2023-11-19T02:14:06;14.70;99.90
52267;DHT22;38223;50.940;4.034;2023-11-19T02:16:35;14.90;99.90
52267;DHT22;38223;50.940;4.034;2023-11-19T02:19:02;14.80;99.90
52267;DHT22;38223;50.940;4.034;2023-11-19T02:21:33;14.80;99.90
52267;DHT22;38223;50.940;4.034;2023-11-19T02:24:05;14.60;99.90
52267;DHT22;38223;50.940;4.034;2023-11-19T02:26:40;14.40;99.90
52267;DHT22;38223;50.940;4.034;2023-11-19T02:29:08;14.40;99.90
52267;DHT22;38223;50.940;4.034;2023-11-19T02:31:35;14.40;99.90
52267;DHT22;38223;50.940;4.034;2023-11-19T02:34:02;14.50;99.90
52267;DHT22;38223;50.940;4.034;2023-11-19T02:36:35;14.40;99.90
52267;DHT22;38223;50.940;4.034;2023-11-19T02:39:03;14.40;99.90
52267;DHT22;38223;50.940;4.034;2023-11-19T02:41:33;14.50;99.90
52267;DHT22;38223;50.940;4.034;2023-11-19T02:44:04;14.50;99.90
52267;DHT22;38223;50.940;4.034;2023-11-19T02:46:33;14.50;99.90
52267;DHT22;38223;50.940;4.034;2023-11-19T02:49:03;14.40;99.90
52267;DHT22;38223;50.940;4.034;2023-11-19T02:51:30;14.40;99.90
52267;DHT22;38223;50.940;4.034;2023-11-19T02:54:00;14.20;99.90
52267;DHT22;38223;50.940;4.034;2023-11-19T02:56:31;14.20;99.90
52267;DHT22;38223;50.940;4.034;2023-11-19T02:59:01;14.40;99.90
52267;DHT22;38223;50.940;4.034;2023-11-19T03:01:33;14.30;99.90
52267;DHT22;38223;50.940;4.034;2023-11-19T03:04:01;14.20;99.90
52267;DHT22;38223;50.940;4.034;2023-11-19T03:06:31;14.00;99.90
52267;DHT22;38223;50.940;4.034;2023-11-19T03:09:04;14.10;99.90
52267;DHT22;38223;50.940;4.034;2023-11-19T03:11:34;14.00;99.90
52267;DHT22;38223;50.940;4.034;2023-11-19T03:14:04;14.00;99.90
52267;DHT22;38223;50.940;4.034;2023-11-19T03:16:35;14.00;99.90
52267;DHT22;38223;50.940;4.034;2023-11-19T03:19:04;14.10;99.90
52267;DHT22;38223;50.940;4.034;2023-11-19T03:21:31;14.10;99.90
52267;DHT22;38223;50.940;4.034;2023-11-19T03:24:00;14.00;99.90
52267;DHT22;38223;50.940;4.034;2023-11-19T03:26:28;14.00;99.90
52267;DHT22;38223;50.940;4.034;2023-11-19T03:28:58;14.00;99.90
52267;DHT22;38223;50.940;4.034;2023-11-19T03:31:28;14.00;99.90
52267;DHT22;38223;50.940;4.034;2023-11-19T03:33:59;14.10;99.90
52267;DHT22;38223;50.940;4.034;2023-11-19T03:36:37;13.90;99.90
52267;DHT22;38223;50.940;4.034;2023-11-19T03:38:58;14.00;99.90
52267;DHT22;38223;50.940;4.034;2023-11-19T03:41:27;14.00;99.90
52267;DHT22;38223;50.940;4.034;2023-11-19T03:43:59;14.00;99.90
52267;DHT22;38223;50.940;4.034;2023-11-19T03:46:26;13.90;99.90
52267;DHT22;38223;50.940;4.034;2023-11-19T03:48:57;13.90;99.90
52267;DHT22;38223;50.940;4.034;2023-11-19T03:51:26;13.90;99.90
52267;DHT22;38223;50.940;4.034;2023-11-19T03:53:57;13.70;99.90
52267;DHT22;38223;50.940;4.034;2023-11-19T03:56:29;13.80;99.90
52267;DHT22;38223;50.940;4.034;2023-11-19T03:59:01;13.80;99.90
52267;DHT22;38223;50.940;4.034;2023-11-19T04:01:31;14.00;99.90
52267;DHT22;38223;50.940;4.034;2023-11-19T04:03:59;13.90;99.90
52267;DHT22;38223;50.940;4.034;2023-11-19T04:06:28;13.90;99.90
52267;DHT22;38223;50.940;4.034;2023-11-19T04:08:58;14.00;99.90
52267;DHT22;38223;50.940;4.034;2023-11-19T04:11:27;14.00;99.90
52267;DHT22;38223;50.940;4.034;2023-11-19T04:16:44;13.80;99.90
52267;DHT22;38223;50.940;4.034;2023-11-19T04:19:15;13.70;99.90
52267;DHT22;38223;50.940;4.034;2023-11-19T04:21:42;13.60;99.90
52267;DHT22;38223;50.940;4.034;2023-11-19T04:24:12;13.60;99.90
52267;DHT22;38223;50.940;4.034;2023-11-19T04:26:41;13.60;99.90
52267;DHT22;38223;50.940;4.034;2023-11-19T04:29:12;13.70;99.90
52267;DHT22;38223;50.940;4.034;2023-11-19T04:31:43;13.70;99.90
52267;DHT22;38223;50.940;4.034;2023-11-19T04:34:11;13.80;99.90
52267;DHT22;38223;50.940;4.034;2023-11-19T04:36:41;13.70;99.90
52267;DHT22;38223;50.940;4.034;2023-11-19T04:39:11;13.80;99.90
52267;DHT22;38223;50.940;4.034;2023-11-19T04:41:49;13.70;99.90
52267;DHT22;38223;50.940;4.034;2023-11-19T04:44:19;13.80;99.90
52267;DHT22;38223;50.940;4.034;2023-11-19T04:46:47;13.80;99.90
52267;DHT22;38223;50.940;4.034;2023-11-19T04:49:15;13.60;99.90
52267;DHT22;38223;50.940;4.034;2023-11-19T04:51:45;13.50;99.90
52267;DHT22;38223;50.940;4.034;2023-11-19T04:54:16;13.50;99.90
52267;DHT22;38223;50.940;4.034;2023-11-19T04:56:47;13.50;99.90
52267;DHT22;38223;50.940;4.034;2023-11-19T04:59:16;13.50;99.90
52267;DHT22;38223;50.940;4.034;2023-11-19T05:01:47;13.60;99.90
52267;DHT22;38223;50.940;4.034;2023-11-19T05:04:16;13.60;99.90
52267;DHT22;38223;50.940;4.034;2023-11-19T05:06:44;13.40;99.90
52267;DHT22;38223;50.940;4.034;2023-11-19T05:09:15;13.50;99.90
52267;DHT22;38223;50.940;4.034;2023-11-19T05:11:44;13.50;99.90
52267;DHT22;38223;50.940;4.034;2023-11-19T05:14:13;13.60;99.90
52267;DHT22;38223;50.940;4.034;2023-11-19T05:16:42;13.60;99.90
52267;DHT22;38223;50.940;4.034;2023-11-19T05:19:10;13.40;99.90
52267;DHT22;38223;50.940;4.034;2023-11-19T05:21:38;13.50;99.90
52267;DHT22;38223;50.940;4.034;2023-11-19T05:24:07;13.50;99.90
52267;DHT22;38223;50.940;4.034;2023-11-19T05:26:37;13.40;99.90
52267;DHT22;38223;50.940;4.034;2023-11-19T05:29:06;13.30;99.90
52267;DHT22;38223;50.940;4.034;2023-11-19T05:31:35;13.30;99.90
52267;DHT22;38223;50.940;4.034;2023-11-19T05:34:05;13.40;99.90
52267;DHT22;38223;50.940;4.034;2023-11-19T05:36:36;13.40;99.90
52267;DHT22;38223;50.940;4.034;2023-11-19T05:39:03;13.30;99.90
52267;DHT22;38223;50.940;4.034;2023-11-19T05:41:33;13.40;99.90
52267;DHT22;38223;50.940;4.034;2023-11-19T05:44:04;13.30;99.90
52267;DHT22;38223;50.940;4.034;2023-11-19T05:46:32;13.50;99.90
52267;DHT22;38223;50.940;4.034;2023-11-19T05:49:02;13.60;99.90
52267;DHT22;38223;50.940;4.034;2023-11-19T05:51:30;13.40;99.90
52267;DHT22;38223;50.940;4.034;2023-11-19T05:54:00;13.30;99.90
52267;DHT22;38223;50.940;4.034;2023-11-19T05:56:28;13.20;99.90
52267;DHT22;38223;50.940;4.034;2023-11-19T05:58:58;13.40;99.90
52267;DHT22;38223;50.940;4.034;2023-11-19T06:01:33;13.50;99.90
52267;DHT22;38223;50.940;4.034;2023-11-19T06:04:02;13.50;99.90
52267;DHT22;38223;50.940;4.034;2023-11-19T06:06:31;13.30;99.90
52267;DHT22;38223;50.940;4.034;2023-11-19T06:09:00;13.40;99.90
52267;DHT22;38223;50.940;4.034;2023-11-19T06:11:29;13.30;99.90
52267;DHT22;38223;50.940;4.034;2023-11-19T06:13:59;13.30;99.90
52267;DHT22;38223;50.940;4.034;2023-11-19T06:16:27;13.30;99.90
52267;DHT22;38223;50.940;4.034;2023-11-19T06:18:54;13.30;99.90
52267;DHT22;38223;50.940;4.034;2023-11-19T06:21:22;13.30;99.90
52267;DHT22;38223;50.940;4.034;2023-11-19T06:23:52;13.20;99.90
52267;DHT22;38223;50.940;4.034;2023-11-19T06:26:22;13.40;99.90
52267;DHT22;38223;50.940;4.034;2023-11-19T06:28:53;13.40;99.90
52267;DHT22;38223;50.940;4.034;2023-11-19T06:31:23;13.30;99.90
52267;DHT22;38223;50.940;4.034;2023-11-19T06:33:51;13.30;99.90
52267;DHT22;38223;50.940;4.034;2023-11-19T06:36:21;13.20;99.90
52267;DHT22;38223;50.940;4.034;2023-11-19T06:38:52;13.20;99.90
52267;DHT22;38223;50.940;4.034;2023-11-19T06:41:20;13.10;99.90
52267;DHT22;38223;50.940;4.034;2023-11-19T06:43:49;13.00;99.90
52267;DHT22;38223;50.940;4.034;2023-11-19T06:46:17;13.00;99.90
52267;DHT22;38223;50.940;4.034;2023-11-19T06:48:46;13.00;99.90
52267;DHT22;38223;50.940;4.034;2023-11-19T06:51:14;13.00;99.90
52267;DHT22;38223;50.940;4.034;2023-11-19T06:53:44;13.10;99.90
52267;DHT22;38223;50.940;4.034;2023-11-19T06:56:18;13.20;99.90
52267;DHT22;38223;50.940;4.034;2023-11-19T06:58:49;13.20;99.90
52267;DHT22;38223;50.940;4.034;2023-11-19T07:01:17;13.00;99.90
52267;DHT22;38223;50.940;4.034;2023-11-19T07:03:46;13.10;99.90
52267;DHT22;38223;50.940;4.034;2023-11-19T07:06:13;13.00;99.90
52267;DHT22;38223;50.940;4.034;2023-11-19T07:08:43;13.00;99.90
52267;DHT22;38223;50.940;4.034;2023-11-19T07:11:13;13.00;99.90
52267;DHT22;38223;50.940;4.034;2023-11-19T07:13:43;13.10;99.90
52267;DHT22;38223;50.940;4.034;2023-11-19T07:16:13;13.20;99.90
52267;DHT22;38223;50.940;4.034;2023-11-19T07:18:40;13.30;99.90
52267;DHT22;38223;50.940;4.034;2023-11-19T07:21:09;13.20;99.90
52267;DHT22;38223;50.940;4.034;2023-11-19T07:23:41;13.00;99.90
52267;DHT22;38223;50.940;4.034;2023-11-19T07:26:09;12.90;99.90
52267;DHT22;38223;50.940;4.034;2023-11-19T07:28:40;13.00;99.90
52267;DHT22;38223;50.940;4.034;2023-11-19T07:31:10;12.90;99.90
52267;DHT22;38223;50.940;4.034;2023-11-19T07:33:42;13.10;99.90
52267;DHT22;38223;50.940;4.034;2023-11-19T07:36:10;13.20;99.90
52267;DHT22;38223;50.940;4.034;2023-11-19T07:38:39;13.30;99.90
52267;DHT22;38223;50.940;4.034;2023-11-19T07:41:08;13.30;99.90
52267;DHT22;38223;50.940;4.034;2023-11-19T07:43:42;13.30;99.90
52267;DHT22;38223;50.940;4.034;2023-11-19T07:46:13;13.40;99.90
52267;DHT22;38223;50.940;4.034;2023-11-19T07:48:45;13.20;99.90
52267;DHT22;38223;50.940;4.034;2023-11-19T07:51:15;13.20;99.90
52267;DHT22;38223;50.940;4.034;2023-11-19T07:53:45;13.30;99.90
52267;DHT22;38223;50.940;4.034;2023-11-19T07:56:14;13.30;99.90
52267;DHT22;38223;50.940;4.034;2023-11-19T07:58:44;13.40;99.90
52267;DHT22;38223;50.940;4.034;2023-11-19T08:01:13;13.40;99.90
52267;DHT22;38223;50.940;4.034;2023-11-19T08:03:42;13.60;99.90
52267;DHT22;38223;50.940;4.034;2023-11-19T08:06:13;13.50;99.90
52267;DHT22;38223;50.940;4.034;2023-11-19T08:08:44;13.50;99.90
52267;DHT22;38223;50.940;4.034;2023-11-19T08:11:14;13.60;99.90
52267;DHT22;38223;50.940;4.034;2023-11-19T08:13:42;13.50;99.90
52267;DHT22;38223;50.940;4.034;2023-11-19T08:16:14;13.60;99.90
52267;DHT22;38223;50.940;4.034;2023-11-19T08:18:45;13.40;99.90
52267;DHT22;38223;50.940;4.034;2023-11-19T08:21:14;13.30;99.90
52267;DHT22;38223;50.940;4.034;2023-11-19T08:23:42;13.20;99.90
52267;DHT22;38223;50.940;4.034;2023-11-19T08:26:10;13.30;99.90
52267;DHT22;38223;50.940;4.034;2023-11-19T08:28:39;13.30;99.90
52267;DHT22;38223;50.940;4.034;2023-11-19T08:31:07;13.40;99.90
52267;DHT22;38223;50.940;4.034;2023-11-19T08:33:38;13.30;99.90
52267;DHT22;38223;50.940;4.034;2023-11-19T08:36:05;13.40;99.90
52267;DHT22;38223;50.940;4.034;2023-11-19T08:38:35;13.20;99.90
52267;DHT22;38223;50.940;4.034;2023-11-19T08:41:04;13.10;99.90
52267;DHT22;38223;50.940;4.034;2023-11-19T08:43:35;13.00;99.90
52267;DHT22;38223;50.940;4.034;2023-11-19T08:46:09;13.00;99.90
52267;DHT22;38223;50.940;4.034;2023-11-19T08:48:34;12.90;99.90
52267;DHT22;38223;50.940;4.034;2023-11-19T08:51:02;12.90;99.90
52267;DHT22;38223;50.940;4.034;2023-11-19T08:53:30;12.90;99.90
52267;DHT22;38223;50.940;4.034;2023-11-19T08:56:18;13.10;99.90
52267;DHT22;38223;50.940;4.034;2023-11-19T08:58:46;13.40;99.90
52267;DHT22;38223;50.940;4.034;2023-11-19T09:01:16;13.40;99.90
52267;DHT22;38223;50.940;4.034;2023-11-19T09:03:46;13.40;99.90
52267;DHT22;38223;50.940;4.034;2023-11-19T09:06:15;13.30;99.90
52267;DHT22;38223;50.940;4.034;2023-11-19T09:08:47;13.30;99.90
52267;DHT22;38223;50.940;4.034;2023-11-19T09:11:18;13.40;99.90
52267;DHT22;38223;50.940;4.034;2023-11-19T09:13:45;13.30;99.90
52267;DHT22;38223;50.940;4.034;2023-11-19T09:16:14;13.40;99.90
52267;DHT22;38223;50.940;4.034;2023-11-19T09:18:44;13.60;99.90
52267;DHT22;38223;50.940;4.034;2023-11-19T09:21:14;13.60;99.90
52267;DHT22;38223;50.940;4.034;2023-11-19T09:23:43;13.70;99.90
52267;DHT22;38223;50.940;4.034;2023-11-19T09:26:14;13.80;99.90
52267;DHT22;38223;50.940;4.034;2023-11-19T09:28:44;13.80;99.90
52267;DHT22;38223;50.940;4.034;2023-11-19T09:31:13;13.70;99.90
52267;DHT22;38223;50.940;4.034;2023-11-19T09:33:44;13.70;99.90
52267;DHT22;38223;50.940;4.034;2023-11-19T09:36:15;13.70;99.90
52267;DHT22;38223;50.940;4.034;2023-11-19T09:38:45;13.60;99.90
52267;DHT22;38223;50.940;4.034;2023-11-19T09:41:15;13.90;99.90
52267;DHT22;38223;50.940;4.034;2023-11-19T09:43:45;14.10;99.90
52267;DHT22;38223;50.940;4.034;2023-11-19T09:46:13;14.20;99.90
52267;DHT22;38223;50.940;4.034;2023-11-19T09:48:46;14.20;99.90
52267;DHT22;38223;50.940;4.034;2023-11-19T09:51:15;14.10;99.90
52267;DHT22;38223;50.940;4.034;2023-11-19T09:53:45;13.90;99.90
52267;DHT22;38223;50.940;4.034;2023-11-19T09:56:15;14.10;99.90
52267;DHT22;38223;50.940;4.034;2023-11-19T09:58:43;13.90;99.90
52267;DHT22;38223;50.940;4.034;2023-11-19T10:01:14;13.80;99.90
52267;DHT22;38223;50.940;4.034;2023-11-19T10:03:45;13.90;99.90
52267;DHT22;38223;50.940;4.034;2023-11-19T10:06:14;13.90;99.90
52267;DHT22;38223;50.940;4.034;2023-11-19T10:08:44;13.90;99.90
52267;DHT22;38223;50.940;4.034;2023-11-19T10:11:14;14.10;99.90
52267;DHT22;38223;50.940;4.034;2023-11-19T10:13:41;14.10;99.90
52267;DHT22;38223;50.940;4.034;2023-11-19T10:16:12;14.00;99.90
52267;DHT22;38223;50.940;4.034;2023-11-19T10:18:49;14.00;99.90
52267;DHT22;38223;50.940;4.034;2023-11-19T10:21:18;13.90;99.90
52267;DHT22;38223;50.940;4.034;2023-11-19T10:23:49;13.90;99.90
52267;DHT22;38223;50.940;4.034;2023-11-19T10:26:20;13.80;99.90
52267;DHT22;38223;50.940;4.034;2023-11-19T10:28:50;13.80;99.90
52267;DHT22;38223;50.940;4.034;2023-11-19T10:31:19;13.70;99.90
52267;DHT22;38223;50.940;4.034;2023-11-19T10:33:49;13.70;99.90
52267;DHT22;38223;50.940;4.034;2023-11-19T10:36:20;13.80;99.90
52267;DHT22;38223;50.940;4.034;2023-11-19T10:38:53;13.80;99.90
52267;DHT22;38223;50.940;4.034;2023-11-19T10:41:26;13.80;99.90
52267;DHT22;38223;50.940;4.034;2023-11-19T10:43:54;13.70;99.90
52267;DHT22;38223;50.940;4.034;2023-11-19T10:46:22;13.90;99.90
52267;DHT22;38223;50.940;4.034;2023-11-19T10:48:52;14.00;99.90
52267;DHT22;38223;50.940;4.034;2023-11-19T10:51:20;13.90;99.90
52267;DHT22;38223;50.940;4.034;2023-11-19T10:53:52;14.00;99.90
52267;DHT22;38223;50.940;4.034;2023-11-19T10:56:23;14.00;99.90
52267;DHT22;38223;50.940;4.034;2023-11-19T10:58:51;14.10;99.90
52267;DHT22;38223;50.940;4.034;2023-11-19T11:01:24;14.20;99.90
52267;DHT22;38223;50.940;4.034;2023-11-19T11:03:54;14.20;99.90
52267;DHT22;38223;50.940;4.034;2023-11-19T11:06:23;14.20;99.90
52267;DHT22;38223;50.940;4.034;2023-11-19T11:08:51;14.20;99.90
52267;DHT22;38223;50.940;4.034;2023-11-19T11:11:20;14.20;99.90
52267;DHT22;38223;50.940;4.034;2023-11-19T11:13:50;14.30;99.90
52267;DHT22;38223;50.940;4.034;2023-11-19T11:16:22;14.30;99.90
52267;DHT22;38223;50.940;4.034;2023-11-19T11:18:49;14.20;99.90
52267;DHT22;38223;50.940;4.034;2023-11-19T11:21:20;14.20;99.90
52267;DHT22;38223;50.940;4.034;2023-11-19T11:23:56;14.30;99.90
52267;DHT22;38223;50.940;4.034;2023-11-19T11:26:41;14.10;99.90
52267;DHT22;38223;50.940;4.034;2023-11-19T11:29:13;14.10;99.90
52267;DHT22;38223;50.940;4.034;2023-11-19T11:31:46;14.20;99.90
52267;DHT22;38223;50.940;4.034;2023-11-19T11:39:44;14.10;99.90
52267;DHT22;38223;50.940;4.034;2023-11-19T11:45:04;14.30;99.90
52267;DHT22;38223;50.940;4.034;2023-11-19T11:50:14;14.40;99.90
52267;DHT22;38223;50.940;4.034;2023-11-19T11:55:33;14.40;99.90
52267;DHT22;38223;50.940;4.034;2023-11-19T11:57:58;14.60;99.90
52267;DHT22;38223;50.940;4.034;2023-11-19T12:00:30;14.70;99.90
52267;DHT22;38223;50.940;4.034;2023-11-19T12:03:05;14.60;99.90
52267;DHT22;38223;50.940;4.034;2023-11-19T12:05:38;14.70;99.90
52267;DHT22;38223;50.940;4.034;2023-11-19T12:08:07;14.60;99.90
52267;DHT22;38223;50.940;4.034;2023-11-19T12:10:37;14.70;99.90
52267;DHT22;38223;50.940;4.034;2023-11-19T12:13:06;14.60;99.90
52267;DHT22;38223;50.940;4.034;2023-11-19T12:16:07;14.50;99.90
52267;DHT22;38223;50.940;4.034;2023-11-19T12:18:04;14.30;99.90
52267;DHT22;38223;50.940;4.034;2023-11-19T12:20:35;14.40;99.90
52267;DHT22;38223;50.940;4.034;2023-11-19T12:23:04;14.40;99.90
52267;DHT22;38223;50.940;4.034;2023-11-19T12:25:34;14.20;99.90
52267;DHT22;38223;50.940;4.034;2023-11-19T12:28:05;14.20;99.90
52267;DHT22;38223;50.940;4.034;2023-11-19T12:30:31;13.90;99.90
52267;DHT22;38223;50.940;4.034;2023-11-19T12:33:07;13.90;99.90
52267;DHT22;38223;50.940;4.034;2023-11-19T12:35:31;14.00;99.90
52267;DHT22;38223;50.940;4.034;2023-11-19T12:38:03;14.00;99.90
52267;DHT22;38223;50.940;4.034;2023-11-19T12:40:31;14.00;99.90
52267;DHT22;38223;50.940;4.034;2023-11-19T12:43:02;14.10;99.90
52267;DHT22;38223;50.940;4.034;2023-11-19T12:45:37;14.10;99.90
52267;DHT22;38223;50.940;4.034;2023-11-19T12:48:08;14.00;99.90
52267;DHT22;38223;50.940;4.034;2023-11-19T12:50:53;14.00;99.90
52267;DHT22;38223;50.940;4.034;2023-11-19T12:53:24;14.00;99.90
52267;DHT22;38223;50.940;4.034;2023-11-19T12:55:52;14.20;99.90
52267;DHT22;38223;50.940;4.034;2023-11-19T12:58:28;14.20;99.90
52267;DHT22;38223;50.940;4.034;2023-11-19T13:01:04;14.00;99.90
52267;DHT22;38223;50.940;4.034;2023-11-19T13:03:34;14.00;99.90
52267;DHT22;38223;50.940;4.034;2023-11-19T13:06:11;14.00;99.90
52267;DHT22;38223;50.940;4.034;2023-11-19T13:08:42;13.80;99.90
52267;DHT22;38223;50.940;4.034;2023-11-19T13:11:12;13.60;99.90
52267;DHT22;38223;50.940;4.034;2023-11-19T13:13:59;13.60;99.90
52267;DHT22;38223;50.940;4.034;2023-11-19T13:16:26;13.50;99.90
52267;DHT22;38223;50.940;4.034;2023-11-19T13:18:57;13.50;99.90
52267;DHT22;38223;50.940;4.034;2023-11-19T13:21:25;13.50;99.90
52267;DHT22;38223;50.940;4.034;2023-11-19T13:23:54;13.40;99.90
52267;DHT22;38223;50.940;4.034;2023-11-19T13:26:23;13.50;99.90
52267;DHT22;38223;50.940;4.034;2023-11-19T13:28:51;13.30;99.90
52267;DHT22;38223;50.940;4.034;2023-11-19T13:31:22;13.40;99.90
52267;DHT22;38223;50.940;4.034;2023-11-19T13:33:49;13.50;99.90
52267;DHT22;38223;50.940;4.034;2023-11-19T13:36:19;13.60;99.90
52267;DHT22;38223;50.940;4.034;2023-11-19T13:38:49;13.80;99.90
52267;DHT22;38223;50.940;4.034;2023-11-19T13:41:20;13.90;99.90
52267;DHT22;38223;50.940;4.034;2023-11-19T13:43:51;13.90;99.90
52267;DHT22;38223;50.940;4.034;2023-11-19T13:46:18;13.90;99.90
52267;DHT22;38223;50.940;4.034;2023-11-19T13:48:46;13.90;99.90
52267;DHT22;38223;50.940;4.034;2023-11-19T13:51:15;14.00;99.90
52267;DHT22;38223;50.940;4.034;2023-11-19T13:53:45;14.10;99.90
52267;DHT22;38223;50.940;4.034;2023-11-19T13:56:14;14.20;99.90
52267;DHT22;38223;50.940;4.034;2023-11-19T13:58:43;14.10;99.90
52267;DHT22;38223;50.940;4.034;2023-11-19T14:01:12;14.10;99.90
52267;DHT22;38223;50.940;4.034;2023-11-19T14:03:40;14.10;99.90
52267;DHT22;38223;50.940;4.034;2023-11-19T14:06:09;14.10;99.90
52267;DHT22;38223;50.940;4.034;2023-11-19T14:08:36;14.00;99.90
52267;DHT22;38223;50.940;4.034;2023-11-19T14:11:09;13.80;99.90
52267;DHT22;38223;50.940;4.034;2023-11-19T14:13:46;13.80;99.90
52267;DHT22;38223;50.940;4.034;2023-11-19T14:16:19;13.80;99.90
52267;DHT22;38223;50.940;4.034;2023-11-19T14:18:49;13.80;99.90
52267;DHT22;38223;50.940;4.034;2023-11-19T14:21:20;13.80;99.90
52267;DHT22;38223;50.940;4.034;2023-11-19T14:23:51;13.60;99.90
52267;DHT22;38223;50.940;4.034;2023-11-19T14:26:22;13.50;99.90
52267;DHT22;38223;50.940;4.034;2023-11-19T14:28:50;13.40;99.90
52267;DHT22;38223;50.940;4.034;2023-11-19T14:31:18;13.40;99.90
52267;DHT22;38223;50.940;4.034;2023-11-19T14:33:48;13.30;99.90
52267;DHT22;38223;50.940;4.034;2023-11-19T14:36:18;13.40;99.90
52267;DHT22;38223;50.940;4.034;2023-11-19T14:38:49;13.50;99.90
52267;DHT22;38223;50.940;4.034;2023-11-19T14:41:20;13.40;99.90
52267;DHT22;38223;50.940;4.034;2023-11-19T14:43:47;13.40;99.90
52267;DHT22;38223;50.940;4.034;2023-11-19T14:46:16;13.50;99.90
52267;DHT22;38223;50.940;4.034;2023-11-19T14:48:46;13.60;99.90
52267;DHT22;38223;50.940;4.034;2023-11-19T14:51:16;13.60;99.90
52267;DHT22;38223;50.940;4.034;2023-11-19T14:53:45;13.70;99.90
52267;DHT22;38223;50.940;4.034;2023-11-19T14:56:16;13.80;99.90
52267;DHT22;38223;50.940;4.034;2023-11-19T14:58:44;13.70;99.90
52267;DHT22;38223;50.940;4.034;2023-11-19T15:01:15;13.70;99.90
52267;DHT22;38223;50.940;4.034;2023-11-19T15:03:44;13.60;99.90
52267;DHT22;38223;50.940;4.034;2023-11-19T15:06:13;13.70;99.90
52267;DHT22;38223;50.940;4.034;2023-11-19T15:08:41;13.60;99.90
52267;DHT22;38223;50.940;4.034;2023-11-19T15:11:11;13.70;99.90
52267;DHT22;38223;50.940;4.034;2023-11-19T15:13:42;13.80;99.90
52267;DHT22;38223;50.940;4.034;2023-11-19T15:16:11;13.70;99.90
52267;DHT22;38223;50.940;4.034;2023-11-19T15:18:40;13.70;99.90
52267;DHT22;38223;50.940;4.034;2023-11-19T15:21:12;13.70;99.90
52267;DHT22;38223;50.940;4.034;2023-11-19T15:23:41;13.80;99.90
52267;DHT22;38223;50.940;4.034;2023-11-19T15:26:09;13.70;99.90
52267;DHT22;38223;50.940;4.034;2023-11-19T15:28:38;13.80;99.90
52267;DHT22;38223;50.940;4.034;2023-11-19T15:31:11;13.80;99.90
52267;DHT22;38223;50.940;4.034;2023-11-19T15:33:41;13.80;99.90
52267;DHT22;38223;50.940;4.034;2023-11-19T15:36:11;13.70;99.90
52267;DHT22;38223;50.940;4.034;2023-11-19T15:38:42;13.60;99.90
52267;DHT22;38223;50.940;4.034;2023-11-19T15:41:10;13.60;99.90
52267;DHT22;38223;50.940;4.034;2023-11-19T15:43:41;13.60;99.90
52267;DHT22;38223;50.940;4.034;2023-11-19T15:46:11;13.50;99.90
52267;DHT22;38223;50.940;4.034;2023-11-19T15:48:43;13.50;99.90
52267;DHT22;38223;50.940;4.034;2023-11-19T15:51:14;13.50;99.90
52267;DHT22;38223;50.940;4.034;2023-11-19T15:53:46;13.40;99.90
52267;DHT22;38223;50.940;4.034;2023-11-19T15:56:13;13.30;99.90
52267;DHT22;38223;50.940;4.034;2023-11-19T15:58:43;13.30;99.90
52267;DHT22;38223;50.940;4.034;2023-11-19T16:01:14;13.30;99.90